Marfaam — PCNH — position and weather

sailwx.info

Track history (hours):
 
Tides and Currents Weather Stations Pressure Air Temp Water Temp Dewpoint Dewpoint Depression Visibility Wind Speed Wind Dir Waves Ship Positions

Marfaam

Last reported at 2017-Dec-15 16:00 UTC. Time now 2017-Dec-15 16:06 UTC.
Position N 51°53' E 004°16'.

Length 118 m; draft 7.4 m.

Type: Cargo ship. MMSI: 246843000.

Date/timePositionNaut miles runAvg speedWind from/ knotsBaromVisibWave heightAir tempDewpointWater temp
2017-Dec-15 16:00N 51°53' E 004°16'0 0.0
2017-Dec-15 15:30N 51°53' E 004°16'0 0.0
2017-Dec-15 15:00N 51°53' E 004°16'0 0.0
2017-Dec-15 14:30N 51°53' E 004°16'0 0.0
2017-Dec-15 14:00N 51°53' E 004°16'0 0.0
2017-Dec-15 13:30N 51°53' E 004°16'0 0.0
2017-Dec-15 12:57N 51°53' E 004°16'0 0.0
2017-Dec-15 12:30N 51°53' E 004°16'0 0.0
2017-Dec-15 12:00N 51°53' E 004°16'0 0.1
2017-Dec-15 11:30N 51°53' E 004°16'1 2.4
2017-Dec-15 11:00N 51°53' E 004°18'5 9.9
2017-Dec-15 10:30N 51°56' E 004°12'510.1
2017-Dec-15 10:00N 51°59' E 004°05'510.6
2017-Dec-15 09:30N 52°00' E 003°57'510.2
2017-Dec-15 08:59N 51°58' E 003°48'3 5.3
2017-Dec-15 08:30N 51°56' E 003°47'0 0.0
2017-Dec-15 07:57N 51°56' E 003°47'0 0.1
2017-Dec-15 07:30N 51°56' E 003°47'0 0.0
2017-Dec-15 06:57N 51°56' E 003°47'0 0.0
2017-Dec-15 06:27N 51°56' E 003°47'0 0.1
2017-Dec-15 06:00N 51°56' E 003°47'0 0.2
2017-Dec-15 05:30N 51°56' E 003°48'0 0.2
2017-Dec-15 05:00N 51°56' E 003°48'0 0.1
2017-Dec-15 04:27N 51°56' E 003°48'0 0.0
2017-Dec-15 03:57N 51°56' E 003°48'0 0.0
2017-Dec-15 02:30N 51°56' E 003°48'1 0.4
2017-Dec-15 01:00N 51°55' E 003°48'0 0.0
2017-Dec-15 00:27N 51°55' E 003°48'0 0.1
2017-Dec-14 18:30N 51°56' E 003°47'0 0.0
2017-Dec-14 17:57N 51°56' E 003°47'0 0.2
2017-Dec-14 17:30N 51°56' E 003°48'0 0.2
2017-Dec-14 16:57N 51°56' E 003°48'0 0.1
2017-Dec-14 16:27N 51°56' E 003°48'0 0.0
2017-Dec-14 16:00N 51°56' E 003°48'0 0.0
2017-Dec-14 15:00N 51°56' E 003°48'0 0.1
2017-Dec-14 14:24N 51°56' E 003°48'0 0.0
2017-Dec-14 14:00N 51°56' E 003°48'0 0.0
2017-Dec-14 13:24N 51°56' E 003°48'0 0.0
2017-Dec-14 12:54N 51°56' E 003°48'0 0.0
2017-Dec-14 12:27N 51°56' E 003°48'0 0.0
2017-Dec-14 11:57N 51°56' E 003°48'0 0.0
2017-Dec-14 11:12N 51°56' E 003°48'0 0.1
2017-Dec-14 10:57N 51°56' E 003°48'0 0.0
2017-Dec-14 10:30N 51°56' E 003°48'0 0.0
2017-Dec-14 09:51N 51°56' E 003°48'0 0.2
2017-Dec-14 09:27N 51°56' E 003°48'0 0.1
2017-Dec-14 09:00N 51°56' E 003°47'0 0.1
2017-Dec-14 08:27N 51°56' E 003°47'0 0.1
2017-Dec-14 07:57N 51°56' E 003°47'0 0.2
2017-Dec-14 07:21N 51°56' E 003°47'0 1.2
2017-Dec-14 07:00N 51°56' E 003°47'5 9.5
2017-Dec-14 06:29N 52°01' E 003°45'3 7.2
2017-Dec-14 06:00N 52°04' E 003°45'3 6.1
2017-Dec-14 05:30N 52°07' E 003°46'3 6.4
2017-Dec-14 05:01N 52°10' E 003°47'3 6.4
2017-Dec-14 04:30N 52°13' E 003°47'3 6.0
2017-Dec-14 03:59N 52°17' E 003°47'3 6.0
2017-Dec-14 03:30N 52°19' E 003°48'80 6.3
2017-Dec-13 14:50N 53°30' E 004°49'3 8.7
2017-Dec-13 14:29N 53°31' E 004°54'4 8.7
2017-Dec-13 14:00N 53°33' E 005°00'102 9.4
2017-Dec-13 03:15N 54°01' E 007°45'2 9.5
2017-Dec-13 03:00N 54°01' E 007°49'510.0
2017-Dec-13 02:30N 54°01' E 007°58'510.0
2017-Dec-13 02:00N 54°01' E 008°06'510.2
2017-Dec-13 01:30N 54°00' E 008°15'5 9.6
2017-Dec-13 01:00N 53°59' E 008°23'612.4
2017-Dec-13 00:30N 53°58' E 008°33'612.8
2017-Dec-13 00:00N 53°54' E 008°42'713.7
2017-Dec-12 23:30N 53°51' E 008°52'713.1
2017-Dec-12 23:00N 53°52' E 009°02'4 8.4
2017-Dec-12 22:30N 53°54' E 009°09'0 0.0
2017-Dec-12 22:01N 53°54' E 009°09'2 3.9
2017-Dec-12 21:30N 53°55' E 009°11'4 8.6
2017-Dec-12 21:00N 53°58' E 009°16'4 8.7
2017-Dec-12 20:31N 54°02' E 009°18'5 8.7
2017-Dec-12 19:57N 54°07' E 009°20'4 8.1
2017-Dec-12 19:30N 54°10' E 009°24'4 8.7
2017-Dec-12 19:00N 54°11' E 009°31'4 8.4
2017-Dec-12 18:30N 54°14' E 009°36'4 7.8
2017-Dec-12 18:00N 54°17' E 009°40'4 7.4
2017-Dec-12 17:30N 54°20' E 009°44'4 8.2
2017-Dec-12 16:59N 54°22' E 009°51'4 8.3
2017-Dec-12 16:27N 54°21' E 009°58'14 5.1
2017-Dec-12 13:37N 54°30' E 010°17'1 9.4
2017-Dec-12 13:30N 54°30' E 010°19'611.2
2017-Dec-12 13:00N 54°32' E 010°28'611.2
2017-Dec-12 12:30N 54°34' E 010°37'611.3
2017-Dec-12 12:00N 54°35' E 010°47'611.3
2017-Dec-12 11:30N 54°35' E 010°56'611.4
2017-Dec-12 11:00N 54°36' E 011°06'510.8
2017-Dec-12 10:30N 54°35' E 011°15'611.5
2017-Dec-12 10:00N 54°33' E 011°24'611.9
2017-Dec-12 09:30N 54°30' E 011°34'611.9
2017-Dec-12 09:00N 54°28' E 011°43'611.7
2017-Dec-12 08:30N 54°27' E 011°53'611.9
2017-Dec-12 08:00N 54°27' E 012°03'510.7
2017-Dec-12 07:30N 54°30' E 012°11'7011.5
2017-Dec-12 01:22N 55°03' E 013°58'711.6
2017-Dec-12 00:43N 55°08' E 014°08'311.8
2017-Dec-12 00:29N 55°10' E 014°12'612.3
2017-Dec-12 00:00N 55°15' E 014°17'612.5
2017-Dec-11 23:30N 55°20' E 014°24'612.5
2017-Dec-11 23:00N 55°25' E 014°31'1712.4
2017-Dec-11 21:37N 55°34' E 014°56'312.5
2017-Dec-11 21:22N 55°36' E 015°01'412.4
2017-Dec-11 21:00N 55°38' E 015°08'612.2
2017-Dec-11 20:30N 55°41' E 015°17'611.9
2017-Dec-11 20:00N 55°44' E 015°26'612.0
2017-Dec-11 19:30N 55°47' E 015°36'612.1
2017-Dec-11 19:00N 55°50' E 015°45'612.3
2017-Dec-11 18:30N 55°53' E 015°55'612.2
2017-Dec-11 18:00N 55°56' E 016°04'611.8
2017-Dec-11 17:30N 55°59' E 016°13'612.0
2017-Dec-11 17:00N 56°02' E 016°23'612.0
2017-Dec-11 16:30N 56°05' E 016°32'611.9
2017-Dec-11 16:00N 56°09' E 016°41'29810.7
2017-Dec-10 12:04N 59°37' E 023°21'111.0
2017-Dec-10 11:58N 59°37' E 023°23'511.3
2017-Dec-10 11:30N 59°39' E 023°33'2411.8
2017-Dec-10 09:30N 59°46' E 024°18'611.2
2017-Dec-10 09:00N 59°47' E 024°29'611.9
2017-Dec-10 08:30N 59°48' E 024°40'612.5
2017-Dec-10 08:00N 59°49' E 024°52'611.3
2017-Dec-10 07:28N 59°51' E 025°04'511.1
2017-Dec-10 07:00N 59°51' E 025°14'2911.2
2017-Dec-10 04:22N 59°46' E 026°12'512.3
2017-Dec-10 04:00N 59°45' E 026°21'510.8
2017-Dec-10 03:30N 59°44' E 026°31'611.2
2017-Dec-10 03:00N 59°43' E 026°42'612.6
2017-Dec-10 02:30N 59°40' E 026°54'510.0
2017-Dec-10 02:00N 59°38' E 027°03'611.2
2017-Dec-10 01:28N 59°36' E 027°14'511.4
2017-Dec-10 01:00N 59°34' E 027°23'611.6
2017-Dec-10 00:30N 59°31' E 027°33'611.4
2017-Dec-10 00:00N 59°28' E 027°42'3 4.8
2017-Dec-09 23:26N 59°25' E 027°44'0 0.0
2017-Dec-09 22:56N 59°25' E 027°44'0 0.0
2017-Dec-09 22:01N 59°25' E 027°44'0 0.0
2017-Dec-09 21:59N 59°25' E 027°44'0 0.0
2017-Dec-09 20:14N 59°25' E 027°44'0 0.0
2017-Dec-09 19:59N 59°25' E 027°44'0 0.0
2017-Dec-09 19:28N 59°25' E 027°44'0 0.0
2017-Dec-09 18:59N 59°25' E 027°44'0 0.0
2017-Dec-09 18:27N 59°25' E 027°44'0 0.0
2017-Dec-09 16:37N 59°25' E 027°44'0 0.0
2017-Dec-09 16:19N 59°25' E 027°44'0 0.0
2017-Dec-09 15:37N 59°25' E 027°44'0 0.0
2017-Dec-09 15:19N 59°25' E 027°44'0 0.0
2017-Dec-09 14:02N 59°25' E 027°44'0 0.0
2017-Dec-09 13:39N 59°25' E 027°44'0 0.0
2017-Dec-09 13:26N 59°25' E 027°44'0 0.0
2017-Dec-09 12:59N 59°25' E 027°44'0 0.0
2017-Dec-09 12:20N 59°25' E 027°44'0 0.0
2017-Dec-09 11:47N 59°25' E 027°44'0 0.0
2017-Dec-09 11:20N 59°25' E 027°44'0 0.0
2017-Dec-09 10:46N 59°25' E 027°44'0 0.0
2017-Dec-09 10:25N 59°25' E 027°44'0 0.0
2017-Dec-09 09:57N 59°25' E 027°44'0 0.0
2017-Dec-09 09:16N 59°25' E 027°44'0 0.0
2017-Dec-09 09:00N 59°25' E 027°44'0 0.0
2017-Dec-09 08:28N 59°25' E 027°44'0 0.0
2017-Dec-09 08:00N 59°25' E 027°44'0 0.0
2017-Dec-09 07:25N 59°25' E 027°44'0 0.0
2017-Dec-09 06:56N 59°25' E 027°44'0 0.0
2017-Dec-09 06:29N 59°25' E 027°44'0 0.0
2017-Dec-09 05:44N 59°25' E 027°44'0 0.0
2017-Dec-09 05:30N 59°25' E 027°44'0 0.0
2017-Dec-09 04:59N 59°25' E 027°44'0 0.0
2017-Dec-09 04:31N 59°25' E 027°44'0 0.0
2017-Dec-09 03:51N 59°25' E 027°44'0 0.0
2017-Dec-09 03:29N 59°25' E 027°44'0 0.0
2017-Dec-09 03:00N 59°25' E 027°44'0 0.0
2017-Dec-08 23:43N 59°25' E 027°44'0 0.0
2017-Dec-08 23:29N 59°25' E 027°44'0 0.0
2017-Dec-08 22:30N 59°25' E 027°44'0 0.0
2017-Dec-08 21:51N 59°25' E 027°44'0 0.0
2017-Dec-08 21:26N 59°25' E 027°44'0 0.0
2017-Dec-08 20:43N 59°25' E 027°44'0 0.0
2017-Dec-08 09:28N 59°25' E 027°44'4 5.5
2017-Dec-08 08:49N 59°28' E 027°41'412.8
2017-Dec-08 08:30N 59°31' E 027°34'612.8
2017-Dec-08 08:00N 59°33' E 027°23'712.8
2017-Dec-08 07:29N 59°36' E 027°11'714.3
2017-Dec-08 07:00N 59°39' E 026°59'612.1
2017-Dec-08 06:30N 59°42' E 026°48'612.1
2017-Dec-08 06:00N 59°44' E 026°37'714.3
2017-Dec-08 05:30N 59°45' E 026°23'3012.6
2017-Dec-08 03:07N 59°47' E 025°23'313.0
2017-Dec-08 02:55N 59°48' E 025°18'512.6
2017-Dec-08 02:30N 59°48' E 025°08'816.0
2017-Dec-08 02:01N 59°46' E 024°53'510.6
2017-Dec-08 01:30N 59°45' E 024°42'714.9
2017-Dec-08 01:00N 59°43' E 024°28'612.4
2017-Dec-08 00:30N 59°41' E 024°16'813.5
2017-Dec-07 23:56N 59°38' E 024°02'613.7
2017-Dec-07 23:29N 59°36' E 023°51'713.7
2017-Dec-07 23:00N 59°33' E 023°39'713.6
2017-Dec-07 22:28N 59°30' E 023°26'713.7
2017-Dec-07 21:58N 59°27' E 023°14'30812.4
2017-Dec-06 21:10N 54°40' E 019°50'310.9
2017-Dec-06 20:56N 54°38' E 019°54'  
Track history (hours):
 
Tides and Currents Weather Stations Pressure Air Temp Water Temp Dewpoint Dewpoint Depression Visibility Wind Speed Wind Dir Waves Ship Positions

Marfaam

Last reported at 2017-Dec-15 16:00 UTC. Time now 2017-Dec-15 16:06 UTC.
Position N 51°53' E 004°16'.

Length 118 m; draft 7.4 m.

Type: Cargo ship. MMSI: 246843000.

Date/timePositionNaut miles runAvg speedWind from/ knotsBaromVisibWave heightAir tempDewpointWater temp
2017-Dec-15 16:00N 51°53' E 004°16'0 0.0
2017-Dec-15 15:30N 51°53' E 004°16'0 0.0
2017-Dec-15 15:00N 51°53' E 004°16'0 0.0
2017-Dec-15 14:30N 51°53' E 004°16'0 0.0
2017-Dec-15 14:00N 51°53' E 004°16'0 0.0
2017-Dec-15 13:30N 51°53' E 004°16'0 0.0
2017-Dec-15 12:57N 51°53' E 004°16'0 0.0
2017-Dec-15 12:30N 51°53' E 004°16'0 0.0
2017-Dec-15 12:00N 51°53' E 004°16'0 0.1
2017-Dec-15 11:30N 51°53' E 004°16'1 2.4
2017-Dec-15 11:00N 51°53' E 004°18'5 9.9
2017-Dec-15 10:30N 51°56' E 004°12'510.1
2017-Dec-15 10:00N 51°59' E 004°05'510.6
2017-Dec-15 09:30N 52°00' E 003°57'510.2
2017-Dec-15 08:59N 51°58' E 003°48'3 5.3
2017-Dec-15 08:30N 51°56' E 003°47'0 0.0
2017-Dec-15 07:57N 51°56' E 003°47'0 0.1
2017-Dec-15 07:30N 51°56' E 003°47'0 0.0
2017-Dec-15 06:57N 51°56' E 003°47'0 0.0
2017-Dec-15 06:27N 51°56' E 003°47'0 0.1
2017-Dec-15 06:00N 51°56' E 003°47'0 0.2
2017-Dec-15 05:30N 51°56' E 003°48'0 0.2
2017-Dec-15 05:00N 51°56' E 003°48'0 0.1
2017-Dec-15 04:27N 51°56' E 003°48'0 0.0
2017-Dec-15 03:57N 51°56' E 003°48'0 0.0
2017-Dec-15 02:30N 51°56' E 003°48'1 0.4
2017-Dec-15 01:00N 51°55' E 003°48'0 0.0
2017-Dec-15 00:27N 51°55' E 003°48'0 0.1
2017-Dec-14 18:30N 51°56' E 003°47'0 0.0
2017-Dec-14 17:57N 51°56' E 003°47'0 0.2
2017-Dec-14 17:30N 51°56' E 003°48'0 0.2
2017-Dec-14 16:57N 51°56' E 003°48'0 0.1
2017-Dec-14 16:27N 51°56' E 003°48'0 0.0
2017-Dec-14 16:00N 51°56' E 003°48'0 0.0
2017-Dec-14 15:00N 51°56' E 003°48'0 0.1
2017-Dec-14 14:24N 51°56' E 003°48'0 0.0
2017-Dec-14 14:00N 51°56' E 003°48'0 0.0
2017-Dec-14 13:24N 51°56' E 003°48'0 0.0
2017-Dec-14 12:54N 51°56' E 003°48'0 0.0
2017-Dec-14 12:27N 51°56' E 003°48'0 0.0
2017-Dec-14 11:57N 51°56' E 003°48'0 0.0
2017-Dec-14 11:12N 51°56' E 003°48'0 0.1
2017-Dec-14 10:57N 51°56' E 003°48'0 0.0
2017-Dec-14 10:30N 51°56' E 003°48'0 0.0
2017-Dec-14 09:51N 51°56' E 003°48'0 0.2
2017-Dec-14 09:27N 51°56' E 003°48'0 0.1
2017-Dec-14 09:00N 51°56' E 003°47'0 0.1
2017-Dec-14 08:27N 51°56' E 003°47'0 0.1
2017-Dec-14 07:57N 51°56' E 003°47'0 0.2
2017-Dec-14 07:21N 51°56' E 003°47'0 1.2
2017-Dec-14 07:00N 51°56' E 003°47'5 9.5
2017-Dec-14 06:29N 52°01' E 003°45'3 7.2
2017-Dec-14 06:00N 52°04' E 003°45'3 6.1
2017-Dec-14 05:30N 52°07' E 003°46'3 6.4
2017-Dec-14 05:01N 52°10' E 003°47'3 6.4
2017-Dec-14 04:30N 52°13' E 003°47'3 6.0
2017-Dec-14 03:59N 52°17' E 003°47'3 6.0
2017-Dec-14 03:30N 52°19' E 003°48'80 6.3
2017-Dec-13 14:50N 53°30' E 004°49'3 8.7
2017-Dec-13 14:29N 53°31' E 004°54'4 8.7
2017-Dec-13 14:00N 53°33' E 005°00'102 9.4
2017-Dec-13 03:15N 54°01' E 007°45'2 9.5
2017-Dec-13 03:00N 54°01' E 007°49'510.0
2017-Dec-13 02:30N 54°01' E 007°58'510.0
2017-Dec-13 02:00N 54°01' E 008°06'510.2
2017-Dec-13 01:30N 54°00' E 008°15'5 9.6
2017-Dec-13 01:00N 53°59' E 008°23'612.4
2017-Dec-13 00:30N 53°58' E 008°33'612.8
2017-Dec-13 00:00N 53°54' E 008°42'713.7
2017-Dec-12 23:30N 53°51' E 008°52'713.1
2017-Dec-12 23:00N 53°52' E 009°02'4 8.4
2017-Dec-12 22:30N 53°54' E 009°09'0 0.0
2017-Dec-12 22:01N 53°54' E 009°09'2 3.9
2017-Dec-12 21:30N 53°55' E 009°11'4 8.6
2017-Dec-12 21:00N 53°58' E 009°16'4 8.7
2017-Dec-12 20:31N 54°02' E 009°18'5 8.7
2017-Dec-12 19:57N 54°07' E 009°20'4 8.1
2017-Dec-12 19:30N 54°10' E 009°24'4 8.7
2017-Dec-12 19:00N 54°11' E 009°31'4 8.4
2017-Dec-12 18:30N 54°14' E 009°36'4 7.8
2017-Dec-12 18:00N 54°17' E 009°40'4 7.4
2017-Dec-12 17:30N 54°20' E 009°44'4 8.2
2017-Dec-12 16:59N 54°22' E 009°51'4 8.3
2017-Dec-12 16:27N 54°21' E 009°58'14 5.1
2017-Dec-12 13:37N 54°30' E 010°17'1 9.4
2017-Dec-12 13:30N 54°30' E 010°19'611.2
2017-Dec-12 13:00N 54°32' E 010°28'611.2
2017-Dec-12 12:30N 54°34' E 010°37'611.3
2017-Dec-12 12:00N 54°35' E 010°47'611.3
2017-Dec-12 11:30N 54°35' E 010°56'611.4
2017-Dec-12 11:00N 54°36' E 011°06'510.8
2017-Dec-12 10:30N 54°35' E 011°15'611.5
2017-Dec-12 10:00N 54°33' E 011°24'611.9
2017-Dec-12 09:30N 54°30' E 011°34'611.9
2017-Dec-12 09:00N 54°28' E 011°43'611.7
2017-Dec-12 08:30N 54°27' E 011°53'611.9
2017-Dec-12 08:00N 54°27' E 012°03'510.7
2017-Dec-12 07:30N 54°30' E 012°11'7011.5
2017-Dec-12 01:22N 55°03' E 013°58'711.6
2017-Dec-12 00:43N 55°08' E 014°08'311.8
2017-Dec-12 00:29N 55°10' E 014°12'612.3
2017-Dec-12 00:00N 55°15' E 014°17'612.5
2017-Dec-11 23:30N 55°20' E 014°24'612.5
2017-Dec-11 23:00N 55°25' E 014°31'1712.4
2017-Dec-11 21:37N 55°34' E 014°56'312.5
2017-Dec-11 21:22N 55°36' E 015°01'412.4
2017-Dec-11 21:00N 55°38' E 015°08'612.2
2017-Dec-11 20:30N 55°41' E 015°17'611.9
2017-Dec-11 20:00N 55°44' E 015°26'612.0
2017-Dec-11 19:30N 55°47' E 015°36'612.1
2017-Dec-11 19:00N 55°50' E 015°45'612.3
2017-Dec-11 18:30N 55°53' E 015°55'612.2
2017-Dec-11 18:00N 55°56' E 016°04'611.8
2017-Dec-11 17:30N 55°59' E 016°13'612.0
2017-Dec-11 17:00N 56°02' E 016°23'612.0
2017-Dec-11 16:30N 56°05' E 016°32'611.9
2017-Dec-11 16:00N 56°09' E 016°41'29810.7
2017-Dec-10 12:04N 59°37' E 023°21'111.0
2017-Dec-10 11:58N 59°37' E 023°23'511.3
2017-Dec-10 11:30N 59°39' E 023°33'2411.8
2017-Dec-10 09:30N 59°46' E 024°18'611.2
2017-Dec-10 09:00N 59°47' E 024°29'611.9
2017-Dec-10 08:30N 59°48' E 024°40'612.5
2017-Dec-10 08:00N 59°49' E 024°52'611.3
2017-Dec-10 07:28N 59°51' E 025°04'511.1
2017-Dec-10 07:00N 59°51' E 025°14'2911.2
2017-Dec-10 04:22N 59°46' E 026°12'512.3
2017-Dec-10 04:00N 59°45' E 026°21'510.8
2017-Dec-10 03:30N 59°44' E 026°31'611.2
2017-Dec-10 03:00N 59°43' E 026°42'612.6
2017-Dec-10 02:30N 59°40' E 026°54'510.0
2017-Dec-10 02:00N 59°38' E 027°03'611.2
2017-Dec-10 01:28N 59°36' E 027°14'511.4
2017-Dec-10 01:00N 59°34' E 027°23'611.6
2017-Dec-10 00:30N 59°31' E 027°33'611.4
2017-Dec-10 00:00N 59°28' E 027°42'3 4.8
2017-Dec-09 23:26N 59°25' E 027°44'0 0.0
2017-Dec-09 22:56N 59°25' E 027°44'0 0.0
2017-Dec-09 22:01N 59°25' E 027°44'0 0.0
2017-Dec-09 21:59N 59°25' E 027°44'0 0.0
2017-Dec-09 20:14N 59°25' E 027°44'0 0.0
2017-Dec-09 19:59N 59°25' E 027°44'0 0.0
2017-Dec-09 19:28N 59°25' E 027°44'0 0.0
2017-Dec-09 18:59N 59°25' E 027°44'0 0.0
2017-Dec-09 18:27N 59°25' E 027°44'0 0.0
2017-Dec-09 16:37N 59°25' E 027°44'0 0.0
2017-Dec-09 16:19N 59°25' E 027°44'0 0.0
2017-Dec-09 15:37N 59°25' E 027°44'0 0.0
2017-Dec-09 15:19N 59°25' E 027°44'0 0.0
2017-Dec-09 14:02N 59°25' E 027°44'0 0.0
2017-Dec-09 13:39N 59°25' E 027°44'0 0.0
2017-Dec-09 13:26N 59°25' E 027°44'0 0.0
2017-Dec-09 12:59N 59°25' E 027°44'0 0.0
2017-Dec-09 12:20N 59°25' E 027°44'0 0.0
2017-Dec-09 11:47N 59°25' E 027°44'0 0.0
2017-Dec-09 11:20N 59°25' E 027°44'0 0.0
2017-Dec-09 10:46N 59°25' E 027°44'0 0.0
2017-Dec-09 10:25N 59°25' E 027°44'0 0.0
2017-Dec-09 09:57N 59°25' E 027°44'0 0.0
2017-Dec-09 09:16N 59°25' E 027°44'0 0.0
2017-Dec-09 09:00N 59°25' E 027°44'0 0.0
2017-Dec-09 08:28N 59°25' E 027°44'0 0.0
2017-Dec-09 08:00N 59°25' E 027°44'0 0.0
2017-Dec-09 07:25N 59°25' E 027°44'0 0.0
2017-Dec-09 06:56N 59°25' E 027°44'0 0.0
2017-Dec-09 06:29N 59°25' E 027°44'0 0.0
2017-Dec-09 05:44N 59°25' E 027°44'0 0.0
2017-Dec-09 05:30N 59°25' E 027°44'0 0.0
2017-Dec-09 04:59N 59°25' E 027°44'0 0.0
2017-Dec-09 04:31N 59°25' E 027°44'0 0.0
2017-Dec-09 03:51N 59°25' E 027°44'0 0.0
2017-Dec-09 03:29N 59°25' E 027°44'0 0.0
2017-Dec-09 03:00N 59°25' E 027°44'0 0.0
2017-Dec-08 23:43N 59°25' E 027°44'0 0.0
2017-Dec-08 23:29N 59°25' E 027°44'0 0.0
2017-Dec-08 22:30N 59°25' E 027°44'0 0.0
2017-Dec-08 21:51N 59°25' E 027°44'0 0.0
2017-Dec-08 21:26N 59°25' E 027°44'0 0.0
2017-Dec-08 20:43N 59°25' E 027°44'0 0.0
2017-Dec-08 09:28N 59°25' E 027°44'4 5.5
2017-Dec-08 08:49N 59°28' E 027°41'412.8
2017-Dec-08 08:30N 59°31' E 027°34'612.8
2017-Dec-08 08:00N 59°33' E 027°23'712.8
2017-Dec-08 07:29N 59°36' E 027°11'714.3
2017-Dec-08 07:00N 59°39' E 026°59'612.1
2017-Dec-08 06:30N 59°42' E 026°48'612.1
2017-Dec-08 06:00N 59°44' E 026°37'714.3
2017-Dec-08 05:30N 59°45' E 026°23'3012.6
2017-Dec-08 03:07N 59°47' E 025°23'313.0
2017-Dec-08 02:55N 59°48' E 025°18'512.6
2017-Dec-08 02:30N 59°48' E 025°08'816.0
2017-Dec-08 02:01N 59°46' E 024°53'510.6
2017-Dec-08 01:30N 59°45' E 024°42'714.9
2017-Dec-08 01:00N 59°43' E 024°28'612.4
2017-Dec-08 00:30N 59°41' E 024°16'813.5
2017-Dec-07 23:56N 59°38' E 024°02'613.7
2017-Dec-07 23:29N 59°36' E 023°51'713.7
2017-Dec-07 23:00N 59°33' E 023°39'713.6
2017-Dec-07 22:28N 59°30' E 023°26'713.7
2017-Dec-07 21:58N 59°27' E 023°14'30812.4
2017-Dec-06 21:10N 54°40' E 019°50'310.9
2017-Dec-06 20:56N 54°38' E 019°54'  

Dump ship's entire track history